Time,TemperatureF,DewpointF,PressureIn,WindDirection,WindDirectionDegrees,WindSpeedMPH,WindSpeedGustMPH,Humidity,HourlyPrecipIn,Conditions,Clouds,dailyrainin,SoftwareType,DateUTC
2013-05-02 00:00:00,59.1,58.0,30.06,NE,41,0.0,0.0,95,0.00,,,0.00,weatherlink.com 1.10,2013-05-02 05:00:00,
2013-05-02 00:15:00,58.7,57.0,30.06,NE,41,0.0,0.0,95,0.00,,,0.00,weatherlink.com 1.10,2013-05-02 05:15:00,
2013-05-02 00:30:00,58.4,57.0,30.06,NE,41,0.0,0.0,96,0.00,,,0.00,weatherlink.com 1.10,2013-05-02 05:30:00,
2013-05-02 00:45:00,58.0,57.0,30.06,NE,41,0.0,0.0,95,0.00,,,0.00,weatherlink.com 1.10,2013-05-02 05:45:00,
2013-05-02 01:00:00,57.7,57.0,30.07,NE,41,0.0,0.0,96,0.00,,,0.00,weatherlink.com 1.10,2013-05-02 06:00:00,
2013-05-02 01:15:00,57.4,56.0,30.07,NE,41,0.0,0.0,95,0.00,,,0.00,weatherlink.com 1.10,2013-05-02 06:15:00,
2013-05-02 01:30:00,57.0,56.0,30.07,NE,41,0.0,0.0,95,0.00,,,0.00,weatherlink.com 1.10,2013-05-02 06:30:00,
2013-05-02 01:45:00,56.6,56.0,30.07,NE,41,0.0,0.0,96,0.00,,,0.00,weatherlink.com 1.10,2013-05-02 06:45:00,
2013-05-02 02:00:00,56.3,55.0,30.06,NE,41,0.0,0.0,96,0.00,,,0.00,weatherlink.com 1.10,2013-05-02 07:00:00,
2013-05-02 02:15:00,55.8,54.0,30.06,NE,41,0.0,0.0,95,0.00,,,0.00,weatherlink.com 1.10,2013-05-02 07:15:00,
2013-05-02 02:30:00,55.4,54.0,30.06,NE,41,0.0,0.0,96,0.00,,,0.00,weatherlink.com 1.10,2013-05-02 07:30:00,
2013-05-02 02:46:00,55.2,54.0,30.06,NE,41,0.0,0.0,96,0.00,,,0.00,weatherlink.com 1.10,2013-05-02 07:46:00,
2013-05-02 03:01:00,55.0,54.0,30.06,NE,41,0.0,0.0,96,0.00,,,0.00,weatherlink.com 1.10,2013-05-02 08:01:00,
2013-05-02 03:16:00,54.6,54.0,30.06,NE,41,0.0,0.0,96,0.00,,,0.00,weatherlink.com 1.10,2013-05-02 08:16:00,
2013-05-02 03:31:00,54.5,53.0,30.06,NE,41,0.0,0.0,96,0.00,,,0.00,weatherlink.com 1.10,2013-05-02 08:31:00,
2013-05-02 03:46:00,54.2,53.0,30.06,NE,41,0.0,0.0,96,0.00,,,0.00,weatherlink.com 1.10,2013-05-02 08:46:00,
2013-05-02 04:01:00,54.2,53.0,30.06,NE,41,0.0,0.0,96,0.00,,,0.00,weatherlink.com 1.10,2013-05-02 09:01:00,
2013-05-02 04:16:00,54.1,53.0,30.06,NE,41,0.0,0.0,97,0.00,,,0.00,weatherlink.com 1.10,2013-05-02 09:16:00,
2013-05-02 04:31:00,54.0,53.0,30.07,NE,41,0.0,0.0,97,0.00,,,0.00,weatherlink.com 1.10,2013-05-02 09:31:00,
2013-05-02 04:46:00,53.7,53.0,30.07,NE,41,0.0,0.0,96,0.00,,,0.00,weatherlink.com 1.10,2013-05-02 09:46:00,
2013-05-02 05:01:00,53.4,52.0,30.07,NE,41,0.0,0.0,96,0.00,,,0.00,weatherlink.com 1.10,2013-05-02 10:01:00,
2013-05-02 05:16:00,53.3,53.0,30.08,NE,41,0.0,0.0,97,0.00,,,0.00,weatherlink.com 1.10,2013-05-02 10:16:00,
2013-05-02 05:31:00,53.1,52.0,30.08,NE,41,0.0,0.0,97,0.00,,,0.00,weatherlink.com 1.10,2013-05-02 10:31:00,
2013-05-02 05:46:00,52.9,52.0,30.09,NE,41,0.0,0.0,97,0.00,,,0.00,weatherlink.com 1.10,2013-05-02 10:46:00,
2013-05-02 06:01:00,52.8,52.0,30.09,NE,41,0.0,0.0,97,0.00,,,0.00,weatherlink.com 1.10,2013-05-02 11:01:00,
2013-05-02 06:16:00,52.7,52.0,30.10,NE,41,0.0,0.0,97,0.00,,,0.00,weatherlink.com 1.10,2013-05-02 11:16:00,
2013-05-02 06:31:00,52.8,52.0,30.11,NE,41,0.0,0.0,97,0.00,,,0.00,weatherlink.com 1.10,2013-05-02 11:31:00,
2013-05-02 06:46:00,53.3,53.0,30.11,NE,41,0.0,0.0,97,0.00,,,0.00,weatherlink.com 1.10,2013-05-02 11:46:00,
2013-05-02 07:01:00,54.0,54.0,30.12,NE,41,0.0,0.0,98,0.00,,,0.00,weatherlink.com 1.10,2013-05-02 12:01:00,
2013-05-02 07:16:00,55.1,55.0,30.13,NE,41,0.0,0.0,98,0.00,,,0.00,weatherlink.com 1.10,2013-05-02 12:16:00,
2013-05-02 07:31:00,56.6,56.0,30.13,NE,41,0.0,0.0,98,0.00,,,0.00,weatherlink.com 1.10,2013-05-02 12:31:00,
2013-05-02 07:46:00,58.1,58.0,30.13,NE,41,0.0,0.0,98,0.00,,,0.00,weatherlink.com 1.10,2013-05-02 12:46:00,
2013-05-02 08:01:00,60.5,60.0,30.13,NE,41,0.0,0.0,98,0.00,,,0.00,weatherlink.com 1.10,2013-05-02 13:01:00,
2013-05-02 08:16:00,63.3,63.0,30.13,NE,41,0.0,2.0,98,0.00,,,0.00,weatherlink.com 1.10,2013-05-02 13:16:00,
2013-05-02 08:31:00,66.4,61.0,30.13,ENE,69,0.0,4.0,83,0.00,,,0.00,weatherlink.com 1.10,2013-05-02 13:31:00,
2013-05-02 08:46:00,68.0,61.0,30.14,ENE,69,0.0,4.0,78,0.00,,,0.00,weatherlink.com 1.10,2013-05-02 13:46:00,
2013-05-02 09:01:00,68.6,60.0,30.13,SSE,147,2.0,9.0,73,0.00,,,0.00,weatherlink.com 1.10,2013-05-02 14:01:00,
2013-05-02 09:16:00,68.5,60.0,30.13,SE,133,0.0,9.0,73,0.00,,,0.00,weatherlink.com 1.10,2013-05-02 14:16:00,
2013-05-02 09:31:00,68.0,57.0,30.13,SSE,166,5.0,9.0,69,0.00,,,0.00,weatherlink.com 1.10,2013-05-02 14:31:00,
2013-05-02 09:46:00,67.9,58.0,30.13,SSE,166,9.0,9.0,70,0.00,,,0.00,weatherlink.com 1.10,2013-05-02 14:46:00,
2013-05-02 10:01:00,68.1,58.0,30.13,SSE,147,3.0,6.0,70,0.00,,,0.00,weatherlink.com 1.10,2013-05-02 15:01:00,
2013-05-02 10:16:00,68.5,57.0,30.13,South,176,3.0,8.0,67,0.00,,,0.00,weatherlink.com 1.10,2013-05-02 15:16:00,
2013-05-02 10:32:00,68.8,57.0,30.14,South,171,3.0,6.0,67,0.00,,,0.00,weatherlink.com 1.10,2013-05-02 15:32:00,
2013-05-02 10:47:00,68.8,57.0,30.14,SSE,166,2.0,8.0,67,0.00,,,0.00,weatherlink.com 1.10,2013-05-02 15:47:00,
2013-05-02 11:02:00,69.0,58.0,30.13,South,171,0.0,4.0,69,0.00,,,0.00,weatherlink.com 1.10,2013-05-02 16:02:00,
2013-05-02 11:17:00,69.6,58.0,30.14,SSE,158,1.0,4.0,67,0.00,,,0.00,weatherlink.com 1.10,2013-05-02 16:17:00,
2013-05-02 11:32:00,69.7,58.0,30.13,SSE,166,1.0,6.0,66,0.00,,,0.00,weatherlink.com 1.10,2013-05-02 16:32:00,
2013-05-02 11:47:00,69.3,58.0,30.13,SSE,157,0.0,5.0,67,0.00,,,0.00,weatherlink.com 1.10,2013-05-02 16:47:00,
2013-05-02 12:02:00,69.9,59.0,30.12,SSE,159,0.0,4.0,69,0.00,,,0.00,weatherlink.com 1.10,2013-05-02 17:02:00,
2013-05-02 12:17:00,70.7,58.0,30.12,South,190,3.0,4.0,65,0.00,,,0.00,weatherlink.com 1.10,2013-05-02 17:17:00,
2013-05-02 12:32:00,70.9,58.0,30.12,SSE,148,0.0,3.0,64,0.00,,,0.00,weatherlink.com 1.10,2013-05-02 17:32:00,
2013-05-02 12:47:00,71.1,59.0,30.11,SSE,160,0.0,2.0,66,0.00,,,0.00,weatherlink.com 1.10,2013-05-02 17:47:00,
2013-05-02 13:02:00,70.5,59.0,30.11,ENE,76,0.0,2.0,66,0.00,,,0.00,weatherlink.com 1.10,2013-05-02 18:02:00,
2013-05-02 13:17:00,70.3,58.0,30.11,ENE,73,0.0,4.0,65,0.00,,,0.00,weatherlink.com 1.10,2013-05-02 18:17:00,
2013-05-02 13:32:00,70.9,58.0,30.10,SSE,153,1.0,3.0,65,0.00,,,0.00,weatherlink.com 1.10,2013-05-02 18:32:00,
2013-05-02 13:47:00,71.5,59.0,30.10,SSE,166,3.0,5.0,64,0.00,,,0.00,weatherlink.com 1.10,2013-05-02 18:47:00,
2013-05-02 14:02:00,71.7,60.0,30.09,NE,47,1.0,3.0,66,0.00,,,0.00,weatherlink.com 1.10,2013-05-02 19:02:00,
2013-05-02 14:17:00,71.9,59.0,30.09,NE,45,0.0,3.0,65,0.00,,,0.00,weatherlink.com 1.10,2013-05-02 19:17:00,
2013-05-02 14:47:00,72.9,59.0,30.08,East,87,2.0,4.0,62,0.00,,,0.00,weatherlink.com 1.10,2013-05-02 19:47:00,
2013-05-02 15:02:00,72.5,60.0,30.07,NE,46,2.0,8.0,64,0.00,,,0.00,weatherlink.com 1.10,2013-05-02 20:02:00,
2013-05-02 15:17:00,73.0,60.0,30.06,ENE,76,1.0,3.0,65,0.00,,,0.00,weatherlink.com 1.10,2013-05-02 20:17:00,
2013-05-02 15:32:00,73.3,62.0,30.06,ENE,75,0.0,2.0,67,0.00,,,0.00,weatherlink.com 1.10,2013-05-02 20:32:00,
2013-05-02 15:47:00,73.2,59.0,30.05,NE,56,0.0,5.0,62,0.00,,,0.00,weatherlink.com 1.10,2013-05-02 20:47:00,
2013-05-02 16:02:00,73.4,61.0,30.05,East,86,0.0,2.0,66,0.00,,,0.00,weatherlink.com 1.10,2013-05-02 21:02:00,
2013-05-02 16:17:00,73.8,59.0,30.04,East,82,0.0,3.0,60,0.00,,,0.00,weatherlink.com 1.10,2013-05-02 21:17:00,
2013-05-02 16:32:00,73.6,60.0,30.04,ENE,67,1.0,4.0,62,0.00,,,0.00,weatherlink.com 1.10,2013-05-02 21:32:00,
2013-05-02 16:47:00,73.5,59.0,30.03,NNE,16,2.0,3.0,61,0.00,,,0.00,weatherlink.com 1.10,2013-05-02 21:47:00,
2013-05-02 17:02:00,73.3,60.0,30.03,NNE,30,0.0,2.0,64,0.00,,,0.00,weatherlink.com 1.10,2013-05-02 22:02:00,
2013-05-02 17:17:00,73.1,61.0,30.03,NNE,21,0.0,3.0,66,0.00,,,0.00,weatherlink.com 1.10,2013-05-02 22:17:00,
2013-05-02 17:32:00,73.1,61.0,30.02,NNE,21,0.0,3.0,66,0.00,,,0.00,weatherlink.com 1.10,2013-05-02 22:32:00,
2013-05-02 17:47:00,73.0,60.0,30.02,NNE,21,0.0,1.0,63,0.00,,,0.00,weatherlink.com 1.10,2013-05-02 22:47:00,
2013-05-02 18:02:00,72.9,61.0,30.02,NNE,21,0.0,1.0,66,0.00,,,0.00,weatherlink.com 1.10,2013-05-02 23:02:00,
2013-05-02 18:17:00,72.7,62.0,30.02,NNE,21,0.0,1.0,69,0.00,,,0.00,weatherlink.com 1.10,2013-05-02 23:17:00,
2013-05-02 18:32:00,72.4,63.0,30.02,NNE,21,0.0,0.0,73,0.00,,,0.00,weatherlink.com 1.10,2013-05-02 23:32:00,
2013-05-02 18:47:00,71.7,63.0,30.02,NNE,21,0.0,0.0,74,0.00,,,0.00,weatherlink.com 1.10,2013-05-02 23:47:00,
2013-05-02 19:02:00,70.5,63.0,30.02,NNE,21,0.0,0.0,76,0.00,,,0.00,weatherlink.com 1.10,2013-05-03 00:02:00,
2013-05-02 19:17:00,69.2,62.0,30.02,NNE,21,0.0,0.0,79,0.00,,,0.00,weatherlink.com 1.10,2013-05-03 00:17:00,
2013-05-02 19:32:00,68.1,62.0,30.02,NNE,21,0.0,0.0,82,0.00,,,0.00,weatherlink.com 1.10,2013-05-03 00:32:00,
2013-05-02 19:47:00,67.3,62.0,30.02,NNE,21,0.0,0.0,84,0.00,,,0.00,weatherlink.com 1.10,2013-05-03 00:47:00,
2013-05-02 20:02:00,66.8,63.0,30.02,NNE,21,0.0,0.0,86,0.00,,,0.00,weatherlink.com 1.10,2013-05-03 01:02:00,
2013-05-02 20:17:00,66.3,62.0,30.02,NNE,21,0.0,0.0,87,0.00,,,0.00,weatherlink.com 1.10,2013-05-03 01:17:00,
2013-05-02 20:32:00,65.6,62.0,30.04,NNE,33,0.0,1.0,89,0.01,,,0.01,weatherlink.com 1.10,2013-05-03 01:32:00,
2013-05-02 20:47:00,64.4,62.0,30.05,NE,38,0.0,3.0,91,0.26,,,0.26,weatherlink.com 1.10,2013-05-03 01:47:00,
2013-05-02 21:02:00,63.8,62.0,30.04,ENE,57,0.0,0.0,93,0.28,,,0.28,weatherlink.com 1.10,2013-05-03 02:02:00,
2013-05-02 21:17:00,63.5,62.0,30.04,ENE,57,0.0,0.0,94,0.29,,,0.29,weatherlink.com 1.10,2013-05-03 02:17:00,
2013-05-02 21:32:00,63.3,62.0,30.04,ENE,57,0.0,0.0,94,0.28,,,0.30,weatherlink.com 1.10,2013-05-03 02:32:00,
2013-05-02 21:47:00,63.1,62.0,30.04,ENE,57,0.0,0.0,95,0.04,,,0.30,weatherlink.com 1.10,2013-05-03 02:47:00,
2013-05-02 22:02:00,62.9,62.0,30.04,ENE,57,0.0,0.0,95,0.03,,,0.31,weatherlink.com 1.10,2013-05-03 03:02:00,
2013-05-02 22:17:00,62.8,61.0,30.04,ENE,57,0.0,0.0,95,0.03,,,0.32,weatherlink.com 1.10,2013-05-03 03:17:00,
2013-05-02 22:32:00,62.7,62.0,30.03,ENE,57,0.0,0.0,96,0.02,,,0.32,weatherlink.com 1.10,2013-05-03 03:32:00,
2013-05-02 22:47:00,62.6,62.0,30.03,ENE,57,0.0,0.0,96,0.02,,,0.32,weatherlink.com 1.10,2013-05-03 03:47:00,
2013-05-02 23:02:00,62.5,61.0,30.02,ENE,65,0.0,2.0,96,0.01,,,0.32,weatherlink.com 1.10,2013-05-03 04:02:00,
2013-05-02 23:17:00,62.4,61.0,30.02,ENE,65,0.0,1.0,96,0.01,,,0.33,weatherlink.com 1.10,2013-05-03 04:17:00,
2013-05-02 23:32:00,62.3,61.0,30.02,ENE,65,0.0,0.0,96,0.01,,,0.33,weatherlink.com 1.10,2013-05-03 04:32:00,
2013-05-02 23:47:00,62.3,61.0,30.02,ENE,65,0.0,0.0,96,0.01,,,0.33,weatherlink.com 1.10,2013-05-03 04:47:00,